Time;durP1;ratioP1;P1;durP2;ratioP2;P2;SDS_P1;SDS_P2;PMS_P1;PMS_P2;Temp;Humidity;BMP_temperature;BMP_pressure;BME280_temperature;BME280_humidity;BME280_pressure;Samples;Min_cycle;Max_cycle;Signal;HPM_P1;HPM_P2
2023/03/07 00:01:19;;;;;;;;;;;3.60;99.90;;;;;;4984025;28;87926;-30
2023/03/07 00:03:44;;;;;;;;;;;3.60;99.90;;;;;;4984181;28;88423;-31
2023/03/07 00:06:10;;;;;;;;;;;3.60;99.90;;;;;;4984625;28;90312;-29
2023/03/07 00:08:35;;;;;;;;;;;3.60;99.90;;;;;;4983475;28;90023;-29
2023/03/07 00:11:02;;;;;;;;;;;3.60;99.90;;;;;;4983562;28;89270;-32
2023/03/07 00:13:31;;;;;;;;;;;3.60;99.90;;;;;;4984253;28;87708;-28
2023/03/07 00:16:16;;;;;;;;;;;3.60;99.90;;;;;;4984402;28;90474;-28
2023/03/07 00:18:42;;;;;;;;;;;3.50;99.90;;;;;;4983703;28;89412;-28
2023/03/07 00:21:09;;;;;;;;;;;3.60;99.90;;;;;;4984097;28;90208;-29
2023/03/07 00:23:36;;;;;;;;;;;3.60;99.90;;;;;;4984787;28;89353;-27
2023/03/07 00:26:03;;;;;;;;;;;3.60;99.90;;;;;;4982925;28;90716;-30
2023/03/07 00:28:29;;;;;;;;;;;3.60;99.90;;;;;;4984075;28;89859;-29
2023/03/07 00:30:59;;;;;;;;;;;3.50;99.90;;;;;;4984072;28;88900;-27
2023/03/07 00:33:25;;;;;;;;;;;3.60;99.90;;;;;;4984024;28;90728;-29
2023/03/07 00:35:55;;;;;;;;;;;3.60;99.90;;;;;;4982881;28;90169;-29
2023/03/07 00:38:20;;;;;;;;;;;3.60;99.90;;;;;;4982595;28;90188;-27
2023/03/07 00:40:46;;;;;;;;;;;3.60;99.90;;;;;;4983959;28;88657;-29
2023/03/07 00:43:11;;;;;;;;;;;3.60;99.90;;;;;;4983260;28;88331;-30
2023/03/07 00:45:37;;;;;;;;;;;3.60;99.90;;;;;;4982837;28;89890;-30
2023/03/07 00:48:02;;;;;;;;;;;3.60;99.90;;;;;;4982703;28;90263;-29
2023/03/07 00:50:28;;;;;;;;;;;3.60;99.90;;;;;;4983131;28;87524;-31
2023/03/07 00:52:53;;;;;;;;;;;3.60;99.90;;;;;;4984259;28;89056;-27
2023/03/07 00:55:19;;;;;;;;;;;3.60;99.90;;;;;;4983065;28;90069;-28
2023/03/07 00:57:44;;;;;;;;;;;3.60;99.90;;;;;;4983209;28;87936;-30
2023/03/07 01:00:10;;;;;;;;;;;3.60;99.90;;;;;;4982754;28;89852;-29
2023/03/07 01:02:36;;;;;;;;;;;3.60;99.90;;;;;;4982988;28;89648;-30
2023/03/07 01:05:01;;;;;;;;;;;3.60;99.90;;;;;;4983226;28;90290;-29
2023/03/07 01:07:27;;;;;;;;;;;3.60;99.90;;;;;;4982775;28;89571;-30
2023/03/07 01:09:53;;;;;;;;;;;3.60;99.90;;;;;;4983206;28;89530;-27
2023/03/07 01:12:18;;;;;;;;;;;3.60;99.90;;;;;;4982491;28;89706;-30
2023/03/07 01:14:43;;;;;;;;;;;3.60;99.90;;;;;;4983769;28;89970;-28
2023/03/07 01:17:09;;;;;;;;;;;3.60;99.90;;;;;;4981258;28;89638;-29
2023/03/07 01:19:34;;;;;;;;;;;3.60;99.90;;;;;;4983780;28;87902;-27
2023/03/07 01:22:01;;;;;;;;;;;3.60;99.90;;;;;;4981475;28;88830;-30
2023/03/07 01:24:27;;;;;;;;;;;3.60;99.90;;;;;;4981679;28;90386;-28
2023/03/07 01:26:52;;;;;;;;;;;3.50;99.90;;;;;;4983161;28;89998;-31
2023/03/07 01:29:18;;;;;;;;;;;3.50;99.90;;;;;;4982398;28;89150;-31
2023/03/07 01:31:43;;;;;;;;;;;3.50;99.90;;;;;;4983134;28;87677;-28
2023/03/07 01:34:09;;;;;;;;;;;3.50;99.90;;;;;;4980780;28;90168;-30
2023/03/07 01:36:35;;;;;;;;;;;3.50;99.90;;;;;;4980919;28;90071;-28
2023/03/07 01:39:05;;;;;;;;;;;3.50;99.90;;;;;;4982708;28;89882;-32
2023/03/07 01:41:31;;;;;;;;;;;3.50;99.90;;;;;;4970105;28;90093;-28
2023/03/07 01:43:57;;;;;;;;;;;3.50;99.90;;;;;;4983188;28;90454;-29
2023/03/07 01:46:25;;;;;;;;;;;3.60;99.90;;;;;;4977879;28;89285;-31
2023/03/07 01:49:04;;;;;;;;;;;3.60;99.90;;;;;;4983120;28;88305;-28
2023/03/07 01:51:30;;;;;;;;;;;3.60;99.90;;;;;;4982785;28;87724;-27
2023/03/07 01:53:57;;;;;;;;;;;3.60;99.90;;;;;;4982141;28;90493;-29
2023/03/07 01:56:22;;;;;;;;;;;3.60;99.90;;;;;;4981983;28;89244;-29
2023/03/07 01:58:48;;;;;;;;;;;3.60;99.90;;;;;;4982929;28;89035;-27
2023/03/07 02:01:13;;;;;;;;;;;3.60;99.90;;;;;;4981453;28;88653;-30
2023/03/07 02:03:45;;;;;;;;;;;3.50;99.90;;;;;;4982177;28;90497;-32
2023/03/07 02:06:11;;;;;;;;;;;3.50;99.90;;;;;;4982700;28;90228;-27
2023/03/07 02:08:37;;;;;;;;;;;3.50;99.90;;;;;;4982253;28;89959;-30
2023/03/07 02:11:03;;;;;;;;;;;3.50;99.90;;;;;;4981654;28;88447;-28
2023/03/07 02:13:29;;;;;;;;;;;3.40;99.90;;;;;;4982249;28;90308;-27
2023/03/07 02:15:54;;;;;;;;;;;3.40;99.90;;;;;;4981624;28;90128;-28
2023/03/07 02:18:24;;;;;;;;;;;3.30;99.90;;;;;;4982041;28;89687;-31
2023/03/07 02:20:56;;;;;;;;;;;3.30;99.90;;;;;;4982373;28;87481;-30
2023/03/07 02:23:25;;;;;;;;;;;3.30;99.90;;;;;;4981709;28;89135;-28
2023/03/07 02:25:55;;;;;;;;;;;3.30;99.90;;;;;;4969185;28;88408;-29
2023/03/07 02:28:20;;;;;;;;;;;3.20;99.90;;;;;;4981573;28;89109;-27
2023/03/07 02:31:01;;;;;;;;;;;3.20;99.90;;;;;;4982434;28;87822;-31
2023/03/07 02:33:27;;;;;;;;;;;3.20;99.90;;;;;;4982194;28;89761;-32
2023/03/07 02:35:54;;;;;;;;;;;3.20;99.90;;;;;;4981997;28;89599;-29
2023/03/07 02:38:21;;;;;;;;;;;3.20;99.90;;;;;;4981249;28;89045;-31
2023/03/07 02:40:46;;;;;;;;;;;3.20;99.90;;;;;;4982139;28;90546;-28
2023/03/07 02:43:12;;;;;;;;;;;3.20;99.90;;;;;;4980700;28;90036;-30
2023/03/07 02:45:37;;;;;;;;;;;3.20;99.90;;;;;;4981021;28;89644;-27
2023/03/07 02:48:03;;;;;;;;;;;3.20;99.90;;;;;;4982142;28;87742;-28
2023/03/07 02:50:28;;;;;;;;;;;3.20;99.90;;;;;;4981778;28;88274;-27
2023/03/07 02:52:54;;;;;;;;;;;3.20;99.90;;;;;;4981709;28;90214;-30
2023/03/07 02:55:20;;;;;;;;;;;3.20;99.90;;;;;;4979338;28;91741;-31
2023/03/07 02:57:45;;;;;;;;;;;3.20;99.90;;;;;;4981762;28;89853;-28
2023/03/07 03:00:11;;;;;;;;;;;3.20;99.90;;;;;;4981872;28;87675;-29
2023/03/07 03:02:37;;;;;;;;;;;3.10;99.90;;;;;;4980582;28;91130;-29
2023/03/07 03:05:03;;;;;;;;;;;3.20;99.90;;;;;;4981322;28;89669;-29
2023/03/07 03:07:28;;;;;;;;;;;3.10;99.90;;;;;;4981261;28;87470;-28
2023/03/07 03:09:54;;;;;;;;;;;3.10;99.90;;;;;;4982223;28;88293;-30
2023/03/07 03:12:19;;;;;;;;;;;3.20;99.90;;;;;;4980411;28;90290;-29
2023/03/07 03:14:45;;;;;;;;;;;3.10;99.90;;;;;;4981326;28;89711;-31
2023/03/07 03:17:10;;;;;;;;;;;3.10;99.90;;;;;;4981102;28;89921;-30
2023/03/07 03:19:36;;;;;;;;;;;3.10;99.90;;;;;;4981278;28;89532;-32
2023/03/07 03:22:02;;;;;;;;;;;3.10;99.90;;;;;;4980913;28;90284;-27
2023/03/07 03:24:27;;;;;;;;;;;3.10;99.90;;;;;;4981427;28;89788;-26
2023/03/07 03:26:59;;;;;;;;;;;3.00;99.90;;;;;;4979918;28;87707;-28
2023/03/07 03:29:25;;;;;;;;;;;3.00;99.90;;;;;;4981508;28;88581;-28
2023/03/07 03:31:50;;;;;;;;;;;3.00;99.90;;;;;;4981078;28;90096;-27
2023/03/07 03:34:16;;;;;;;;;;;3.00;99.90;;;;;;4980829;28;89383;-29
2023/03/07 03:36:42;;;;;;;;;;;3.00;99.90;;;;;;4981978;28;88007;-27
2023/03/07 03:39:09;;;;;;;;;;;3.00;99.90;;;;;;4981378;28;87956;-28
2023/03/07 03:41:35;;;;;;;;;;;3.00;99.90;;;;;;4981014;28;90612;-29
2023/03/07 03:44:01;;;;;;;;;;;3.00;99.90;;;;;;4981542;28;89668;-29
2023/03/07 03:46:26;;;;;;;;;;;3.00;99.90;;;;;;4979806;28;88866;-31
2023/03/07 03:48:52;;;;;;;;;;;3.00;99.90;;;;;;4983894;28;87704;-29
2023/03/07 03:51:18;;;;;;;;;;;3.00;99.90;;;;;;4983569;28;90045;-28
2023/03/07 03:53:44;;;;;;;;;;;2.90;99.90;;;;;;4982254;28;91404;-31
2023/03/07 03:56:11;;;;;;;;;;;2.90;99.90;;;;;;4983695;28;89459;-27
2023/03/07 03:58:37;;;;;;;;;;;2.90;99.90;;;;;;4984965;28;90041;-28
2023/03/07 04:01:04;;;;;;;;;;;2.90;99.90;;;;;;4983884;28;88797;-30
2023/03/07 04:03:59;;;;;;;;;;;2.90;99.90;;;;;;4984840;28;89606;-28
2023/03/07 04:06:29;;;;;;;;;;;2.80;99.90;;;;;;4970114;28;88830;-28
2023/03/07 04:08:54;;;;;;;;;;;2.80;99.90;;;;;;4984093;28;88034;-27
2023/03/07 04:11:20;;;;;;;;;;;2.70;99.90;;;;;;4983532;28;89736;-29
2023/03/07 04:13:46;;;;;;;;;;;2.70;99.90;;;;;;4984362;28;90472;-27
2023/03/07 04:16:12;;;;;;;;;;;2.70;99.90;;;;;;4984266;28;89960;-29
2023/03/07 04:18:38;;;;;;;;;;;2.70;99.90;;;;;;4984525;28;88350;-28
2023/03/07 04:21:05;;;;;;;;;;;2.70;99.90;;;;;;4982549;28;89894;-29
2023/03/07 04:23:30;;;;;;;;;;;2.60;99.90;;;;;;4982176;28;89487;-30
2023/03/07 04:25:57;;;;;;;;;;;2.70;99.90;;;;;;4983973;28;89349;-30
2023/03/07 04:28:24;;;;;;;;;;;2.70;99.90;;;;;;4983440;28;89871;-27
2023/03/07 04:30:51;;;;;;;;;;;2.70;99.90;;;;;;4984045;28;89853;-30
2023/03/07 04:33:17;;;;;;;;;;;2.60;99.90;;;;;;4984048;28;89515;-27
2023/03/07 04:35:42;;;;;;;;;;;2.60;99.90;;;;;;4983486;28;87822;-30
2023/03/07 04:38:08;;;;;;;;;;;2.60;99.90;;;;;;4983828;28;89670;-31
2023/03/07 04:40:34;;;;;;;;;;;2.60;99.90;;;;;;4983964;28;90065;-28
2023/03/07 04:43:00;;;;;;;;;;;2.60;99.90;;;;;;4982619;28;90153;-28
2023/03/07 04:45:25;;;;;;;;;;;2.60;99.90;;;;;;4983418;28;87684;-29
2023/03/07 04:47:51;;;;;;;;;;;2.50;99.90;;;;;;4982713;28;90384;-27
2023/03/07 04:50:17;;;;;;;;;;;2.60;99.90;;;;;;4983817;28;90556;-28
2023/03/07 04:52:43;;;;;;;;;;;2.60;99.90;;;;;;4983374;28;89670;-28
2023/03/07 04:55:09;;;;;;;;;;;2.50;99.90;;;;;;4983131;28;88806;-30
2023/03/07 04:57:34;;;;;;;;;;;2.60;99.90;;;;;;4983828;28;89106;-30
2023/03/07 05:00:00;;;;;;;;;;;2.60;99.90;;;;;;4983105;28;90105;-30
2023/03/07 05:02:25;;;;;;;;;;;2.60;99.90;;;;;;4983270;28;90879;-29
2023/03/07 05:04:51;;;;;;;;;;;2.60;99.90;;;;;;4983018;28;87581;-30
2023/03/07 05:07:16;;;;;;;;;;;2.60;99.90;;;;;;4982665;28;89162;-31
2023/03/07 05:09:42;;;;;;;;;;;2.60;99.90;;;;;;4983542;28;90185;-28
2023/03/07 05:12:07;;;;;;;;;;;2.60;99.90;;;;;;4982486;28;89649;-32
2023/03/07 05:14:33;;;;;;;;;;;2.60;99.90;;;;;;4983691;28;88594;-28
2023/03/07 05:16:58;;;;;;;;;;;2.60;99.90;;;;;;4982881;28;90532;-28
2023/03/07 05:19:24;;;;;;;;;;;2.60;99.90;;;;;;4983618;28;90169;-28
2023/03/07 05:21:49;;;;;;;;;;;2.60;99.90;;;;;;4981867;28;89662;-29
2023/03/07 05:24:15;;;;;;;;;;;2.60;99.90;;;;;;4983952;28;89179;-27
2023/03/07 05:26:40;;;;;;;;;;;2.60;99.90;;;;;;4982737;28;87595;-28
2023/03/07 05:29:06;;;;;;;;;;;2.60;99.90;;;;;;4983357;28;90101;-28
2023/03/07 05:31:31;;;;;;;;;;;2.60;99.90;;;;;;4982869;28;90688;-28
2023/03/07 05:33:57;;;;;;;;;;;2.70;99.90;;;;;;4982770;28;87773;-28
2023/03/07 05:36:23;;;;;;;;;;;2.60;99.90;;;;;;4982627;28;89525;-27
2023/03/07 05:38:49;;;;;;;;;;;2.60;99.90;;;;;;4975210;28;89800;-27
2023/03/07 05:41:14;;;;;;;;;;;2.60;99.90;;;;;;4975295;28;90011;-27
2023/03/07 05:43:40;;;;;;;;;;;2.50;99.90;;;;;;4983163;28;87597;-28
2023/03/07 05:46:05;;;;;;;;;;;2.60;99.90;;;;;;4982359;28;89431;-26
2023/03/07 05:48:31;;;;;;;;;;;2.60;99.90;;;;;;4982681;28;90308;-27
2023/03/07 05:51:00;;;;;;;;;;;2.60;99.90;;;;;;4981609;28;89648;-27
2023/03/07 05:53:25;;;;;;;;;;;2.60;99.90;;;;;;4982892;28;89951;-31
2023/03/07 05:55:51;;;;;;;;;;;2.60;99.90;;;;;;4983291;28;89693;-26
2023/03/07 05:58:16;;;;;;;;;;;2.60;99.90;;;;;;4981741;28;89274;-28
2023/03/07 06:00:42;;;;;;;;;;;2.50;99.90;;;;;;4982585;28;89447;-28
2023/03/07 06:03:07;;;;;;;;;;;2.50;99.90;;;;;;4980552;28;88847;-27
2023/03/07 06:05:33;;;;;;;;;;;2.50;99.90;;;;;;4982909;28;90495;-28
2023/03/07 06:07:58;;;;;;;;;;;2.50;99.90;;;;;;4980398;28;89967;-26
2023/03/07 06:10:24;;;;;;;;;;;2.50;99.90;;;;;;4981251;28;89526;-30
2023/03/07 06:12:51;;;;;;;;;;;2.50;99.90;;;;;;4980871;28;88347;-28
2023/03/07 06:15:16;;;;;;;;;;;2.50;99.90;;;;;;4981732;28;87711;-30
2023/03/07 06:17:42;;;;;;;;;;;2.50;99.90;;;;;;4976599;28;89962;-27
2023/03/07 06:20:08;;;;;;;;;;;2.50;99.90;;;;;;4981053;28;91372;-30
2023/03/07 06:22:36;;;;;;;;;;;2.60;99.90;;;;;;4981972;28;88105;-28
2023/03/07 06:25:02;;;;;;;;;;;2.60;99.90;;;;;;4982094;28;89901;-28
2023/03/07 06:27:30;;;;;;;;;;;2.60;99.90;;;;;;4980729;28;90684;-27
2023/03/07 06:29:56;;;;;;;;;;;2.60;99.90;;;;;;4982261;28;88791;-29
2023/03/07 06:32:21;;;;;;;;;;;2.60;99.90;;;;;;4981757;28;88826;-30
2023/03/07 06:34:47;;;;;;;;;;;2.60;99.90;;;;;;4982587;28;89344;-28
2023/03/07 06:37:12;;;;;;;;;;;2.60;99.90;;;;;;4981629;28;89851;-26
2023/03/07 06:39:38;;;;;;;;;;;2.70;99.90;;;;;;4982162;28;89763;-31
2023/03/07 06:42:03;;;;;;;;;;;2.70;99.90;;;;;;4981300;28;87717;-30
2023/03/07 06:44:29;;;;;;;;;;;2.60;99.90;;;;;;4982176;28;87700;-31
2023/03/07 06:46:54;;;;;;;;;;;2.60;99.90;;;;;;4981273;28;90271;-31
2023/03/07 06:49:20;;;;;;;;;;;2.70;99.90;;;;;;4981376;28;89546;-32
2023/03/07 06:51:45;;;;;;;;;;;2.70;99.90;;;;;;4981441;28;89226;-31
2023/03/07 06:54:11;;;;;;;;;;;2.70;99.90;;;;;;4980811;28;87740;-31
2023/03/07 06:56:36;;;;;;;;;;;2.70;99.90;;;;;;4979720;28;90229;-31
2023/03/07 06:59:02;;;;;;;;;;;2.80;99.90;;;;;;4978737;28;90081;-32
2023/03/07 07:01:28;;;;;;;;;;;2.80;99.90;;;;;;4979305;28;90169;-31
2023/03/07 07:03:53;;;;;;;;;;;2.80;99.90;;;;;;4979622;28;89273;-30
2023/03/07 07:06:19;;;;;;;;;;;2.80;99.90;;;;;;4978926;28;90273;-32
2023/03/07 07:08:44;;;;;;;;;;;2.70;99.90;;;;;;4979441;28;88556;-30
2023/03/07 07:11:09;;;;;;;;;;;2.80;99.90;;;;;;4979167;28;88249;-31
2023/03/07 07:13:35;;;;;;;;;;;2.70;99.90;;;;;;4980084;28;89207;-31
2023/03/07 07:16:04;;;;;;;;;;;2.50;99.90;;;;;;4979584;28;90828;-33
2023/03/07 07:18:30;;;;;;;;;;;2.40;99.90;;;;;;4979061;28;89820;-31
2023/03/07 07:20:56;;;;;;;;;;;2.30;99.90;;;;;;4979175;28;88431;-33
2023/03/07 07:23:21;;;;;;;;;;;2.30;99.90;;;;;;4980283;28;87648;-30
2023/03/07 07:25:47;;;;;;;;;;;2.30;99.90;;;;;;4982604;28;90048;-32
2023/03/07 07:28:12;;;;;;;;;;;2.30;99.90;;;;;;4982616;28;89201;-32
2023/03/07 07:30:38;;;;;;;;;;;2.20;99.90;;;;;;4983498;28;88713;-30
2023/03/07 07:33:04;;;;;;;;;;;2.20;99.90;;;;;;4982520;28;88591;-33
2023/03/07 07:35:29;;;;;;;;;;;2.30;99.90;;;;;;4982530;28;89349;-31
2023/03/07 07:37:55;;;;;;;;;;;2.30;99.90;;;;;;4982534;28;90948;-32
2023/03/07 07:40:20;;;;;;;;;;;2.40;99.90;;;;;;4982270;28;89484;-31
2023/03/07 07:42:53;;;;;;;;;;;2.40;99.90;;;;;;4982361;28;88214;-32
2023/03/07 07:45:19;;;;;;;;;;;2.40;99.90;;;;;;4969851;28;90218;-29
2023/03/07 07:47:46;;;;;;;;;;;2.50;99.90;;;;;;4981835;28;89840;-32
2023/03/07 07:50:13;;;;;;;;;;;2.50;99.90;;;;;;4982680;28;87588;-31
2023/03/07 07:52:38;;;;;;;;;;;2.50;99.90;;;;;;4982582;28;88588;-28
2023/03/07 07:55:04;;;;;;;;;;;2.50;99.90;;;;;;4982390;28;90053;-32
2023/03/07 07:57:29;;;;;;;;;;;2.60;99.90;;;;;;4981684;28;91938;-30
2023/03/07 07:59:55;;;;;;;;;;;2.60;99.90;;;;;;4981677;28;88123;-30
2023/03/07 08:02:20;;;;;;;;;;;2.60;99.90;;;;;;4980109;28;89115;-30
2023/03/07 08:04:46;;;;;;;;;;;2.70;99.90;;;;;;4982607;28;90293;-30
2023/03/07 08:07:12;;;;;;;;;;;2.70;99.90;;;;;;4981685;28;90825;-30
2023/03/07 08:09:38;;;;;;;;;;;2.70;99.90;;;;;;4981689;28;89064;-32
2023/03/07 08:12:04;;;;;;;;;;;2.70;99.90;;;;;;4983506;28;89093;-32
2023/03/07 08:14:31;;;;;;;;;;;2.80;99.90;;;;;;4982106;28;90093;-32
2023/03/07 08:16:57;;;;;;;;;;;2.80;99.90;;;;;;4981814;28;88729;-31
2023/03/07 08:19:22;;;;;;;;;;;2.80;99.90;;;;;;4981893;28;89884;-30
2023/03/07 08:21:48;;;;;;;;;;;2.90;99.90;;;;;;4980466;28;88310;-31
2023/03/07 08:24:13;;;;;;;;;;;2.90;99.90;;;;;;4981956;28;90301;-32
2023/03/07 08:26:39;;;;;;;;;;;3.00;99.90;;;;;;4977445;28;91233;-32
2023/03/07 08:29:04;;;;;;;;;;;2.90;99.90;;;;;;4981708;28;88647;-30
2023/03/07 08:31:30;;;;;;;;;;;3.00;99.90;;;;;;4981335;28;88346;-31
2023/03/07 08:33:55;;;;;;;;;;;3.10;99.90;;;;;;4980750;28;90154;-32
2023/03/07 08:36:21;;;;;;;;;;;3.00;99.90;;;;;;4979871;28;90117;-31
2023/03/07 08:38:50;;;;;;;;;;;3.10;99.90;;;;;;4981512;28;89610;-32
2023/03/07 08:41:16;;;;;;;;;;;3.20;99.90;;;;;;4981018;28;90705;-31
2023/03/07 08:43:41;;;;;;;;;;;3.20;99.90;;;;;;4981970;28;88769;-32
2023/03/07 08:46:07;;;;;;;;;;;3.30;99.90;;;;;;4979653;28;90683;-31
2023/03/07 08:48:33;;;;;;;;;;;3.30;99.90;;;;;;4981857;28;88375;-31
2023/03/07 08:51:06;;;;;;;;;;;3.40;99.90;;;;;;4981575;28;88873;-29
2023/03/07 08:53:31;;;;;;;;;;;3.40;99.90;;;;;;4981024;28;90032;-32
2023/03/07 08:55:57;;;;;;;;;;;3.40;99.90;;;;;;4979244;28;89168;-32
2023/03/07 08:58:22;;;;;;;;;;;3.40;99.90;;;;;;4981640;28;88510;-29
2023/03/07 09:00:48;;;;;;;;;;;3.40;99.90;;;;;;4980790;28;88036;-31
2023/03/07 09:03:13;;;;;;;;;;;3.50;99.90;;;;;;4980523;28;89169;-32
2023/03/07 09:05:39;;;;;;;;;;;3.50;99.90;;;;;;4981394;28;89523;-29
2023/03/07 09:08:05;;;;;;;;;;;3.50;99.90;;;;;;4978562;28;88843;-32
2023/03/07 09:10:31;;;;;;;;;;;3.50;99.90;;;;;;4981814;28;88376;-31
2023/03/07 09:12:56;;;;;;;;;;;3.60;99.90;;;;;;4980872;28;90474;-29
2023/03/07 09:15:22;;;;;;;;;;;3.60;99.90;;;;;;4981008;28;89267;-30
2023/03/07 09:17:47;;;;;;;;;;;3.60;99.90;;;;;;4981530;28;88621;-31
2023/03/07 09:20:15;;;;;;;;;;;3.60;99.90;;;;;;4980979;28;88440;-30
2023/03/07 09:22:40;;;;;;;;;;;3.60;99.90;;;;;;4980468;28;90212;-31
2023/03/07 09:25:06;;;;;;;;;;;3.60;99.90;;;;;;4980807;28;89747;-32
2023/03/07 09:27:31;;;;;;;;;;;3.60;99.90;;;;;;4985871;28;88632;-33
2023/03/07 09:29:57;;;;;;;;;;;3.60;99.90;;;;;;4982644;28;88650;-30
2023/03/07 09:32:22;;;;;;;;;;;3.70;99.90;;;;;;4979808;28;89064;-28
2023/03/07 09:34:48;;;;;;;;;;;3.70;99.90;;;;;;4980385;28;89765;-30
2023/03/07 09:37:13;;;;;;;;;;;3.80;99.90;;;;;;4979212;28;88138;-27
2023/03/07 09:39:39;;;;;;;;;;;3.80;99.90;;;;;;4980700;28;87880;-29
2023/03/07 09:42:10;;;;;;;;;;;3.90;99.90;;;;;;4980570;28;91119;-30
2023/03/07 09:44:36;;;;;;;;;;;3.90;99.90;;;;;;4980372;28;89695;-28
2023/03/07 09:47:09;;;;;;;;;;;4.00;99.90;;;;;;4977641;28;88100;-32
2023/03/07 09:49:46;;;;;;;;;;;4.00;99.90;;;;;;4980746;28;89680;-30
2023/03/07 09:52:16;;;;;;;;;;;4.10;99.90;;;;;;4980790;28;89987;-28
2023/03/07 09:54:48;;;;;;;;;;;4.10;99.90;;;;;;4980290;28;89504;-31
2023/03/07 09:57:23;;;;;;;;;;;4.00;99.90;;;;;;4979377;28;89797;-28
2023/03/07 09:59:50;;;;;;;;;;;4.00;99.90;;;;;;4979499;28;89936;-30
2023/03/07 10:02:31;;;;;;;;;;;4.00;99.90;;;;;;4979986;28;90615;-30
2023/03/07 10:05:00;;;;;;;;;;;3.90;99.90;;;;;;4969021;28;89406;-32
2023/03/07 10:07:26;;;;;;;;;;;3.90;99.90;;;;;;4979694;28;87883;-31
2023/03/07 10:09:59;;;;;;;;;;;3.80;99.90;;;;;;4981447;28;88716;-30
2023/03/07 10:12:34;;;;;;;;;;;3.80;99.90;;;;;;4979231;28;89860;-27
2023/03/07 10:15:23;;;;;;;;;;;3.50;99.90;;;;;;4979924;28;89881;-31
2023/03/07 10:17:54;;;;;;;;;;;3.30;99.90;;;;;;4938253;28;89349;-29
2023/03/07 10:20:25;;;;;;;;;;;3.20;99.90;;;;;;4979707;28;88968;-30
2023/03/07 10:22:57;;;;;;;;;;;3.10;99.90;;;;;;4979935;28;89769;-31
2023/03/07 10:25:30;;;;;;;;;;;3.00;99.90;;;;;;4978780;28;89017;-30
2023/03/07 10:28:06;;;;;;;;;;;2.90;99.90;;;;;;4980346;28;89833;-30
2023/03/07 10:30:31;;;;;;;;;;;2.90;99.90;;;;;;4979993;28;87993;-28
2023/03/07 10:32:58;;;;;;;;;;;2.80;99.90;;;;;;4979251;28;90316;-30
2023/03/07 10:35:37;;;;;;;;;;;2.80;99.90;;;;;;4978519;28;91029;-32
2023/03/07 10:38:08;;;;;;;;;;;2.70;99.90;;;;;;4978904;28;87988;-34
2023/03/07 10:40:38;;;;;;;;;;;2.80;99.90;;;;;;4980150;28;87831;-30
2023/03/07 10:43:04;;;;;;;;;;;2.80;99.90;;;;;;4978984;28;90348;-31
2023/03/07 10:45:31;;;;;;;;;;;2.90;99.90;;;;;;4978770;28;89470;-29
2023/03/07 10:48:03;;;;;;;;;;;3.00;99.90;;;;;;4979351;28;89670;-33
2023/03/07 10:50:35;;;;;;;;;;;3.20;99.90;;;;;;4978618;28;88671;-31
2023/03/07 10:53:02;;;;;;;;;;;3.30;99.90;;;;;;4978352;28;90062;-30
2023/03/07 10:55:29;;;;;;;;;;;3.40;99.90;;;;;;4978883;28;89538;-30
2023/03/07 10:58:10;;;;;;;;;;;3.50;99.90;;;;;;4981599;28;88954;-30
2023/03/07 11:00:36;;;;;;;;;;;3.60;99.90;;;;;;4982840;28;87604;-33
2023/03/07 11:03:01;;;;;;;;;;;3.70;99.90;;;;;;4982116;28;90062;-33
2023/03/07 11:05:31;;;;;;;;;;;3.70;99.90;;;;;;4982993;28;90108;-30
2023/03/07 11:07:57;;;;;;;;;;;3.80;99.90;;;;;;4982850;28;89012;-30
2023/03/07 11:10:37;;;;;;;;;;;3.80;99.90;;;;;;4983976;28;89516;-31
2023/03/07 11:13:12;;;;;;;;;;;3.90;99.90;;;;;;4971341;28;90184;-30
2023/03/07 11:15:37;;;;;;;;;;;3.90;99.90;;;;;;4983296;28;90349;-31
2023/03/07 11:18:03;;;;;;;;;;;3.80;99.90;;;;;;4982618;28;88575;-30
2023/03/07 11:20:45;;;;;;;;;;;3.80;99.90;;;;;;4982469;28;87690;-31
2023/03/07 11:23:13;;;;;;;;;;;3.90;99.90;;;;;;4981969;28;90290;-32
2023/03/07 11:25:38;;;;;;;;;;;4.00;99.90;;;;;;4980768;28;89311;-31
2023/03/07 11:28:21;;;;;;;;;;;4.00;99.90;;;;;;4982337;28;89024;-33
2023/03/07 11:31:13;;;;;;;;;;;4.10;99.90;;;;;;4972224;28;89470;-32
2023/03/07 11:33:50;;;;;;;;;;;4.20;99.90;;;;;;4964880;28;89489;-29
2023/03/07 11:36:18;;;;;;;;;;;4.40;99.90;;;;;;4982660;28;89451;-32
2023/03/07 11:40:32;;;;;;;2.30;1.90;;;4.40;99.90;;;;;;5011602;28;88659;-33
2023/03/07 11:43:20;;;;;;;2.05;1.10;;;4.30;99.90;;;;;;4994711;28;88679;-32
2023/03/07 11:46:34;;;;;;;3.65;1.70;;;4.50;99.90;;;;;;5030202;22;88976;-30
2023/03/07 11:49:00;;;;;;;1.35;0.95;;;4.50;99.90;;;;;;4987894;28;89102;-30
2023/03/07 11:51:38;;;;;;;4.13;1.67;;;4.70;99.90;;;;;;4994560;28;89826;-31
2023/03/07 11:54:28;;;;;;;5.72;1.63;;;4.80;99.90;;;;;;4995676;28;88779;-28
2023/03/07 11:56:59;;;;;;;8.60;2.80;;;5.00;99.90;;;;;;4995036;28;89158;-28
2023/03/07 11:59:47;;;;;;;1.95;1.67;;;5.10;99.90;;;;;;4994249;28;90804;-29
2023/03/07 12:02:32;;;;;;;5.05;1.73;;;5.10;99.90;;;;;;4994761;28;89697;-30
2023/03/07 12:05:21;;;;;;;8.98;1.38;;;5.00;99.90;;;;;;4983123;28;88215;-30
2023/03/07 12:08:05;;;;;;;4.60;2.25;;;4.90;99.90;;;;;;4994007;28;89844;-27
2023/03/07 12:10:46;;;;;;;4.68;1.67;;;4.80;99.90;;;;;;4995484;28;90223;-30
2023/03/07 12:13:17;;;;;;;3.58;1.65;;;4.70;99.90;;;;;;4994254;28;91352;-31
2023/03/07 12:15:53;;;;;;;5.63;2.08;;;4.50;99.90;;;;;;4994031;28;88925;-31
2023/03/07 12:18:56;;;;;;;1.77;1.20;;;4.30;99.90;;;;;;4995072;28;89569;-30
2023/03/07 12:21:22;;;;;;;3.70;1.30;;;4.30;99.90;;;;;;4996885;28;91385;-28
2023/03/07 12:24:11;;;;;;;5.65;1.88;;;4.10;99.90;;;;;;4998579;28;89289;-32
2023/03/07 12:26:58;;;;;;;1.33;1.23;;;4.10;99.90;;;;;;4990641;28;88321;-29
2023/03/07 12:29:39;;;;;;;7.28;1.55;;;4.20;99.90;;;;;;4995301;28;88858;-30
2023/03/07 12:32:24;;;;;;;2.55;1.10;;;4.20;99.90;;;;;;4993312;28;91082;-28
2023/03/07 12:34:59;;;;;;;2.38;1.33;;;4.20;99.90;;;;;;5000361;28;90060;-32
2023/03/07 12:37:32;;;;;;;4.40;1.42;;;4.20;99.90;;;;;;4993940;28;87585;-28
2023/03/07 12:40:02;;;;;;;1.85;1.20;;;4.30;99.90;;;;;;4995023;28;89299;-30
2023/03/07 12:42:37;;;;;;;0.95;0.88;;;4.30;99.90;;;;;;4994634;28;89744;-30
2023/03/07 12:45:16;;;;;;;2.20;2.03;;;4.30;99.90;;;;;;4993420;28;90162;-29
2023/03/07 12:48:04;;;;;;;1.42;1.02;;;4.20;99.90;;;;;;4993700;28;87664;-30
2023/03/07 12:50:42;;;;;;;5.85;2.10;;;4.20;99.90;;;;;;4987899;28;90412;-29
2023/03/07 12:53:33;;;;;;;3.50;2.38;;;4.20;99.90;;;;;;4979598;28;89661;-31
2023/03/07 12:56:18;;;;;;;1.95;1.27;;;4.30;99.90;;;;;;4980069;28;90101;-31
2023/03/07 12:58:58;;;;;;;4.43;2.00;;;4.40;99.90;;;;;;4980751;28;89768;-31
2023/03/07 13:01:46;;;;;;;1.42;0.93;;;4.40;99.90;;;;;;4979448;28;90436;-30
2023/03/07 13:04:17;;;;;;;3.33;1.73;;;4.50;99.90;;;;;;4979625;28;90380;-28
2023/03/07 13:06:44;;;;;;;4.13;1.13;;;4.40;99.90;;;;;;4979995;28;91265;-30
2023/03/07 13:09:21;;;;;;;2.92;1.05;;;4.50;99.90;;;;;;4980263;28;88081;-30
2023/03/07 13:12:14;;;;;;;3.53;1.77;;;4.60;99.90;;;;;;4981091;28;89457;-32
2023/03/07 13:14:43;;;;;;;6.97;2.60;;;4.60;99.90;;;;;;4969171;28;90295;-31
2023/03/07 13:17:10;;;;;;;3.17;2.17;;;4.60;99.90;;;;;;4979094;28;89641;-29
2023/03/07 13:19:37;;;;;;;1.45;1.20;;;4.60;99.90;;;;;;4980575;28;89571;-32
2023/03/07 13:22:23;;;;;;;1.60;1.50;;;4.70;99.90;;;;;;4980782;28;89746;-28
2023/03/07 13:24:57;;;;;;;1.00;1.00;;;4.70;99.90;;;;;;4958351;28;91185;-31
2023/03/07 13:27:26;;;;;;;3.88;1.88;;;4.70;99.90;;;;;;4978839;28;89336;-33
2023/03/07 13:30:06;;;;;;;5.47;2.40;;;4.80;99.90;;;;;;4980610;28;88698;-30
2023/03/07 13:32:50;;;;;;;11.55;2.75;;;4.80;99.90;;;;;;4979828;28;89046;-33
2023/03/07 13:35:47;;;;;;;4.78;2.47;;;4.90;99.90;;;;;;4979460;28;90267;-30
2023/03/07 13:38:33;;;;;;;2.85;1.65;;;4.80;99.90;;;;;;4979125;28;89212;-29
2023/03/07 13:41:07;;;;;;;3.28;1.92;;;4.80;99.90;;;;;;4980702;28;88902;-29
2023/03/07 13:43:43;;;;;;;3.25;1.92;;;4.70;99.90;;;;;;4979953;28;90395;-30
2023/03/07 13:46:28;;;;;;;3.78;1.98;;;4.80;99.90;;;;;;4979058;28;91981;-30
2023/03/07 13:48:53;;;;;;;4.10;2.38;;;4.80;99.90;;;;;;4980037;28;90902;-30
2023/03/07 13:51:20;;;;;;;3.83;2.60;;;4.80;99.90;;;;;;4979742;28;88427;-28
2023/03/07 13:54:07;;;;;;;3.47;1.92;;;4.90;99.90;;;;;;4982359;28;89633;-29
2023/03/07 13:56:40;;;;;;;3.43;2.43;;;4.90;99.90;;;;;;4679983;28;99405;-29
2023/03/07 13:59:12;;;;;;;2.55;1.67;;;4.90;99.90;;;;;;4966949;28;90891;-30
2023/03/07 14:01:52;;;;;;;2.30;1.67;;;4.80;99.90;;;;;;4964681;28;87741;-28
2023/03/07 14:04:26;;;;;;;5.07;3.05;;;4.80;99.90;;;;;;4964212;28;88737;-32
2023/03/07 14:07:00;;;;;;;2.53;2.22;;;4.90;99.90;;;;;;4960370;28;89617;-30
2023/03/07 14:09:38;;;;;;;3.92;1.70;;;5.00;99.90;;;;;;4959996;28;89672;-32
2023/03/07 14:12:39;;;;;;;6.07;2.20;;;5.00;99.90;;;;;;4959987;28;89874;-31
2023/03/07 14:15:28;;;;;;;1.95;1.60;;;5.00;99.90;;;;;;4941970;28;89887;-33
2023/03/07 14:18:18;;;;;;;3.67;1.65;;;5.00;99.90;;;;;;4960077;28;89408;-31
2023/03/07 14:21:10;;;;;;;6.47;2.47;;;5.10;99.90;;;;;;4960685;28;89553;-32
2023/03/07 14:24:12;;;;;;;2.72;2.05;;;5.00;99.90;;;;;;4960244;28;88955;-31
2023/03/07 14:26:43;;;;;;;5.40;2.22;;;5.10;99.90;;;;;;4959977;28;89902;-29